sensor_id;sensor_type;location;lat;lon;timestamp;temperature;humidity
19168;DHT22;9716;53.114;18.040;2024-01-07T00:00:16;-2.70;99.90
19168;DHT22;9716;53.114;18.040;2024-01-07T00:03:04;-2.70;99.90
19168;DHT22;9716;53.114;18.040;2024-01-07T00:05:35;-2.80;99.90
19168;DHT22;9716;53.114;18.040;2024-01-07T00:08:04;-2.80;99.90
19168;DHT22;9716;53.114;18.040;2024-01-07T00:10:34;-2.80;99.90
19168;DHT22;9716;53.114;18.040;2024-01-07T00:13:03;-2.80;99.90
19168;DHT22;9716;53.114;18.040;2024-01-07T00:15:31;-2.80;99.90
19168;DHT22;9716;53.114;18.040;2024-01-07T00:18:00;-2.80;99.90
19168;DHT22;9716;53.114;18.040;2024-01-07T00:20:28;-2.80;99.90
19168;DHT22;9716;53.114;18.040;2024-01-07T00:22:57;-2.90;99.90
19168;DHT22;9716;53.114;18.040;2024-01-07T00:25:25;-2.90;99.90
19168;DHT22;9716;53.114;18.040;2024-01-07T00:27:55;-2.80;99.90
19168;DHT22;9716;53.114;18.040;2024-01-07T00:30:24;-2.80;99.90
19168;DHT22;9716;53.114;18.040;2024-01-07T00:32:52;-2.90;99.90
19168;DHT22;9716;53.114;18.040;2024-01-07T00:35:21;-2.90;99.90
19168;DHT22;9716;53.114;18.040;2024-01-07T00:37:49;-3.00;99.90
19168;DHT22;9716;53.114;18.040;2024-01-07T00:40:18;-3.00;99.90
19168;DHT22;9716;53.114;18.040;2024-01-07T00:42:46;-3.00;99.90
19168;DHT22;9716;53.114;18.040;2024-01-07T00:45:16;-3.00;99.90
19168;DHT22;9716;53.114;18.040;2024-01-07T00:47:44;-3.00;99.90
19168;DHT22;9716;53.114;18.040;2024-01-07T00:50:13;-3.10;99.90
19168;DHT22;9716;53.114;18.040;2024-01-07T00:52:42;-3.10;99.90
19168;DHT22;9716;53.114;18.040;2024-01-07T00:55:11;-3.10;99.90
19168;DHT22;9716;53.114;18.040;2024-01-07T00:57:39;-3.10;99.90
19168;DHT22;9716;53.114;18.040;2024-01-07T01:00:09;-3.10;99.90
19168;DHT22;9716;53.114;18.040;2024-01-07T01:02:39;-3.10;99.90
19168;DHT22;9716;53.114;18.040;2024-01-07T01:05:08;-3.10;99.90
19168;DHT22;9716;53.114;18.040;2024-01-07T01:07:36;-3.10;99.90
19168;DHT22;9716;53.114;18.040;2024-01-07T01:10:06;-3.10;99.90
19168;DHT22;9716;53.114;18.040;2024-01-07T01:12:35;-3.20;99.90
19168;DHT22;9716;53.114;18.040;2024-01-07T01:15:04;-3.20;99.90
19168;DHT22;9716;53.114;18.040;2024-01-07T01:17:32;-3.20;99.90
19168;DHT22;9716;53.114;18.040;2024-01-07T01:20:03;-3.20;99.90
19168;DHT22;9716;53.114;18.040;2024-01-07T01:22:31;-3.20;99.90
19168;DHT22;9716;53.114;18.040;2024-01-07T01:25:00;-3.20;99.90
19168;DHT22;9716;53.114;18.040;2024-01-07T01:27:29;-3.30;99.90
19168;DHT22;9716;53.114;18.040;2024-01-07T01:29:58;-3.30;99.90
19168;DHT22;9716;53.114;18.040;2024-01-07T01:32:26;-3.40;99.90
19168;DHT22;9716;53.114;18.040;2024-01-07T01:34:55;-3.30;99.90
19168;DHT22;9716;53.114;18.040;2024-01-07T01:37:25;-3.30;99.90
19168;DHT22;9716;53.114;18.040;2024-01-07T01:39:53;-3.40;99.90
19168;DHT22;9716;53.114;18.040;2024-01-07T01:42:22;-3.40;99.90
19168;DHT22;9716;53.114;18.040;2024-01-07T01:44:50;-3.40;99.90
19168;DHT22;9716;53.114;18.040;2024-01-07T01:47:19;-3.40;99.90
19168;DHT22;9716;53.114;18.040;2024-01-07T01:49:48;-3.40;99.90
19168;DHT22;9716;53.114;18.040;2024-01-07T01:52:16;-3.40;99.90
19168;DHT22;9716;53.114;18.040;2024-01-07T01:54:47;-3.40;99.90
19168;DHT22;9716;53.114;18.040;2024-01-07T01:57:19;-3.40;99.90
19168;DHT22;9716;53.114;18.040;2024-01-07T01:59:48;-3.40;99.90
19168;DHT22;9716;53.114;18.040;2024-01-07T02:02:19;-3.40;99.90
19168;DHT22;9716;53.114;18.040;2024-01-07T02:04:48;-3.40;99.90
19168;DHT22;9716;53.114;18.040;2024-01-07T02:07:16;-3.40;99.90
19168;DHT22;9716;53.114;18.040;2024-01-07T02:09:46;-3.40;99.90
19168;DHT22;9716;53.114;18.040;2024-01-07T02:12:15;-3.50;99.90
19168;DHT22;9716;53.114;18.040;2024-01-07T02:14:44;-3.40;99.90
19168;DHT22;9716;53.114;18.040;2024-01-07T02:17:12;-3.50;99.90
19168;DHT22;9716;53.114;18.040;2024-01-07T02:19:40;-3.50;99.90
19168;DHT22;9716;53.114;18.040;2024-01-07T02:22:09;-3.50;99.90
19168;DHT22;9716;53.114;18.040;2024-01-07T02:24:39;-3.50;99.90
19168;DHT22;9716;53.114;18.040;2024-01-07T02:27:07;-3.50;99.90
19168;DHT22;9716;53.114;18.040;2024-01-07T02:29:36;-3.50;99.90
19168;DHT22;9716;53.114;18.040;2024-01-07T02:32:05;-3.60;99.90
19168;DHT22;9716;53.114;18.040;2024-01-07T02:34:34;-3.60;99.90
19168;DHT22;9716;53.114;18.040;2024-01-07T02:37:02;-3.60;99.90
19168;DHT22;9716;53.114;18.040;2024-01-07T02:39:31;-3.60;99.90
19168;DHT22;9716;53.114;18.040;2024-01-07T02:42:02;-3.60;99.90
19168;DHT22;9716;53.114;18.040;2024-01-07T02:44:30;-3.60;99.90
19168;DHT22;9716;53.114;18.040;2024-01-07T02:46:59;-3.60;99.90
19168;DHT22;9716;53.114;18.040;2024-01-07T02:49:28;-3.60;99.90
19168;DHT22;9716;53.114;18.040;2024-01-07T02:51:56;-3.60;99.90
19168;DHT22;9716;53.114;18.040;2024-01-07T02:54:25;-3.70;99.90
19168;DHT22;9716;53.114;18.040;2024-01-07T02:56:53;-3.70;99.90
19168;DHT22;9716;53.114;18.040;2024-01-07T02:59:24;-3.70;99.90
19168;DHT22;9716;53.114;18.040;2024-01-07T03:01:51;-3.70;99.90
19168;DHT22;9716;53.114;18.040;2024-01-07T03:04:20;-3.80;99.90
19168;DHT22;9716;53.114;18.040;2024-01-07T03:06:48;-3.80;99.90
19168;DHT22;9716;53.114;18.040;2024-01-07T03:09:17;-3.80;99.90
19168;DHT22;9716;53.114;18.040;2024-01-07T03:11:45;-3.80;99.90
19168;DHT22;9716;53.114;18.040;2024-01-07T03:14:13;-3.90;99.90
19168;DHT22;9716;53.114;18.040;2024-01-07T03:16:45;-3.90;99.90
19168;DHT22;9716;53.114;18.040;2024-01-07T03:19:14;-3.90;99.90
19168;DHT22;9716;53.114;18.040;2024-01-07T03:21:42;-3.90;99.90
19168;DHT22;9716;53.114;18.040;2024-01-07T03:24:11;-3.90;99.90
19168;DHT22;9716;53.114;18.040;2024-01-07T03:26:39;-3.90;99.90
19168;DHT22;9716;53.114;18.040;2024-01-07T03:29:08;-3.90;99.90
19168;DHT22;9716;53.114;18.040;2024-01-07T03:31:36;-3.90;99.90
19168;DHT22;9716;53.114;18.040;2024-01-07T03:34:06;-3.90;99.90
19168;DHT22;9716;53.114;18.040;2024-01-07T03:36:34;-3.90;99.90
19168;DHT22;9716;53.114;18.040;2024-01-07T03:39:03;-3.90;99.90
19168;DHT22;9716;53.114;18.040;2024-01-07T03:41:31;-3.90;99.90
19168;DHT22;9716;53.114;18.040;2024-01-07T03:44:01;-3.90;99.90
19168;DHT22;9716;53.114;18.040;2024-01-07T03:46:29;-3.80;99.90
19168;DHT22;9716;53.114;18.040;2024-01-07T03:48:58;-3.80;99.90
19168;DHT22;9716;53.114;18.040;2024-01-07T03:51:28;-3.80;99.90
19168;DHT22;9716;53.114;18.040;2024-01-07T03:53:57;-3.80;99.90
19168;DHT22;9716;53.114;18.040;2024-01-07T03:56:25;-3.80;99.90
19168;DHT22;9716;53.114;18.040;2024-01-07T03:58:54;-3.80;99.90
19168;DHT22;9716;53.114;18.040;2024-01-07T04:01:22;-3.80;99.90
19168;DHT22;9716;53.114;18.040;2024-01-07T04:03:51;-3.80;99.90
19168;DHT22;9716;53.114;18.040;2024-01-07T04:06:20;-3.90;99.90
19168;DHT22;9716;53.114;18.040;2024-01-07T04:08:50;-3.90;99.90
19168;DHT22;9716;53.114;18.040;2024-01-07T04:11:18;-3.90;99.90
19168;DHT22;9716;53.114;18.040;2024-01-07T04:13:47;-3.90;99.90
19168;DHT22;9716;53.114;18.040;2024-01-07T04:16:18;-3.90;99.90
19168;DHT22;9716;53.114;18.040;2024-01-07T04:18:47;-3.90;99.90
19168;DHT22;9716;53.114;18.040;2024-01-07T04:21:20;-3.90;99.90
19168;DHT22;9716;53.114;18.040;2024-01-07T04:23:50;-3.90;99.90
19168;DHT22;9716;53.114;18.040;2024-01-07T04:26:18;-3.90;99.90
19168;DHT22;9716;53.114;18.040;2024-01-07T04:28:47;-3.80;99.90
19168;DHT22;9716;53.114;18.040;2024-01-07T04:31:15;-3.80;99.90
19168;DHT22;9716;53.114;18.040;2024-01-07T04:33:44;-3.80;99.90
19168;DHT22;9716;53.114;18.040;2024-01-07T04:36:13;-3.80;99.90
19168;DHT22;9716;53.114;18.040;2024-01-07T04:38:41;-3.80;99.90
19168;DHT22;9716;53.114;18.040;2024-01-07T04:41:11;-3.80;99.90
19168;DHT22;9716;53.114;18.040;2024-01-07T04:43:42;-3.70;99.90
19168;DHT22;9716;53.114;18.040;2024-01-07T04:46:11;-3.70;99.90
19168;DHT22;9716;53.114;18.040;2024-01-07T04:48:39;-3.80;99.90
19168;DHT22;9716;53.114;18.040;2024-01-07T04:51:08;-3.80;99.90
19168;DHT22;9716;53.114;18.040;2024-01-07T04:53:36;-3.70;99.90
19168;DHT22;9716;53.114;18.040;2024-01-07T04:56:05;-3.70;99.90
19168;DHT22;9716;53.114;18.040;2024-01-07T04:58:35;-3.70;99.90
19168;DHT22;9716;53.114;18.040;2024-01-07T05:01:04;-3.70;99.90
19168;DHT22;9716;53.114;18.040;2024-01-07T05:03:33;-3.70;99.90
19168;DHT22;9716;53.114;18.040;2024-01-07T05:06:03;-3.60;99.90
19168;DHT22;9716;53.114;18.040;2024-01-07T05:08:31;-3.60;99.90
19168;DHT22;9716;53.114;18.040;2024-01-07T05:11:00;-3.60;99.90
19168;DHT22;9716;53.114;18.040;2024-01-07T05:13:29;-3.60;99.90
19168;DHT22;9716;53.114;18.040;2024-01-07T05:15:59;-3.60;99.90
19168;DHT22;9716;53.114;18.040;2024-01-07T05:18:28;-3.60;99.90
19168;DHT22;9716;53.114;18.040;2024-01-07T05:20:57;-3.60;99.90
19168;DHT22;9716;53.114;18.040;2024-01-07T05:23:25;-3.60;99.90
19168;DHT22;9716;53.114;18.040;2024-01-07T05:25:54;-3.60;99.90
19168;DHT22;9716;53.114;18.040;2024-01-07T05:28:22;-3.60;99.90
19168;DHT22;9716;53.114;18.040;2024-01-07T05:30:51;-3.60;99.90
19168;DHT22;9716;53.114;18.040;2024-01-07T05:33:21;-3.60;99.90
19168;DHT22;9716;53.114;18.040;2024-01-07T05:35:49;-3.60;99.90
19168;DHT22;9716;53.114;18.040;2024-01-07T05:38:18;-3.60;99.90
19168;DHT22;9716;53.114;18.040;2024-01-07T05:40:49;-3.60;99.90
19168;DHT22;9716;53.114;18.040;2024-01-07T05:43:17;-3.60;99.90
19168;DHT22;9716;53.114;18.040;2024-01-07T05:45:45;-3.70;99.90
19168;DHT22;9716;53.114;18.040;2024-01-07T05:48:14;-3.70;99.90
19168;DHT22;9716;53.114;18.040;2024-01-07T05:50:44;-3.70;99.90
19168;DHT22;9716;53.114;18.040;2024-01-07T05:53:13;-3.70;99.90
19168;DHT22;9716;53.114;18.040;2024-01-07T05:55:41;-3.70;99.90
19168;DHT22;9716;53.114;18.040;2024-01-07T05:58:10;-3.70;99.90
19168;DHT22;9716;53.114;18.040;2024-01-07T06:00:39;-3.70;99.90
19168;DHT22;9716;53.114;18.040;2024-01-07T06:03:10;-3.60;99.90
19168;DHT22;9716;53.114;18.040;2024-01-07T06:05:39;-3.60;99.90
19168;DHT22;9716;53.114;18.040;2024-01-07T06:08:09;-3.60;99.90
19168;DHT22;9716;53.114;18.040;2024-01-07T06:10:37;-3.60;99.90
19168;DHT22;9716;53.114;18.040;2024-01-07T06:13:06;-3.60;99.90
19168;DHT22;9716;53.114;18.040;2024-01-07T06:15:34;-3.70;99.90
19168;DHT22;9716;53.114;18.040;2024-01-07T06:18:03;-3.70;99.90
19168;DHT22;9716;53.114;18.040;2024-01-07T06:20:32;-3.80;99.90
19168;DHT22;9716;53.114;18.040;2024-01-07T06:23:00;-3.80;99.90
19168;DHT22;9716;53.114;18.040;2024-01-07T06:25:30;-3.90;99.90
19168;DHT22;9716;53.114;18.040;2024-01-07T06:27:59;-4.00;99.90
19168;DHT22;9716;53.114;18.040;2024-01-07T06:30:27;-4.00;99.90
19168;DHT22;9716;53.114;18.040;2024-01-07T06:32:56;-4.00;99.90
19168;DHT22;9716;53.114;18.040;2024-01-07T06:35:25;-4.00;99.90
19168;DHT22;9716;53.114;18.040;2024-01-07T06:37:53;-4.00;99.90
19168;DHT22;9716;53.114;18.040;2024-01-07T06:40:24;-4.10;99.90
19168;DHT22;9716;53.114;18.040;2024-01-07T06:42:55;-4.10;99.90
19168;DHT22;9716;53.114;18.040;2024-01-07T06:45:23;-4.10;99.90
19168;DHT22;9716;53.114;18.040;2024-01-07T06:47:52;-4.10;99.90
19168;DHT22;9716;53.114;18.040;2024-01-07T06:50:21;-4.10;99.90
19168;DHT22;9716;53.114;18.040;2024-01-07T06:52:49;-4.10;99.90
19168;DHT22;9716;53.114;18.040;2024-01-07T06:55:18;-4.10;99.90
19168;DHT22;9716;53.114;18.040;2024-01-07T06:57:46;-4.20;99.90
19168;DHT22;9716;53.114;18.040;2024-01-07T07:00:19;-4.20;99.90
19168;DHT22;9716;53.114;18.040;2024-01-07T07:02:53;-4.20;99.90
19168;DHT22;9716;53.114;18.040;2024-01-07T07:05:22;-4.30;99.90
19168;DHT22;9716;53.114;18.040;2024-01-07T07:07:51;-4.30;99.90
19168;DHT22;9716;53.114;18.040;2024-01-07T07:10:22;-4.30;99.90
19168;DHT22;9716;53.114;18.040;2024-01-07T07:12:50;-4.30;99.90
19168;DHT22;9716;53.114;18.040;2024-01-07T07:15:20;-4.40;99.90
19168;DHT22;9716;53.114;18.040;2024-01-07T07:17:49;-4.30;99.90
19168;DHT22;9716;53.114;18.040;2024-01-07T07:20:17;-4.30;99.90
19168;DHT22;9716;53.114;18.040;2024-01-07T07:22:47;-4.30;99.90
19168;DHT22;9716;53.114;18.040;2024-01-07T07:25:15;-4.40;99.90
19168;DHT22;9716;53.114;18.040;2024-01-07T07:27:44;-4.30;99.90
19168;DHT22;9716;53.114;18.040;2024-01-07T07:30:13;-4.40;99.90
19168;DHT22;9716;53.114;18.040;2024-01-07T07:32:44;-4.40;99.90
19168;DHT22;9716;53.114;18.040;2024-01-07T07:35:12;-4.30;99.90
19168;DHT22;9716;53.114;18.040;2024-01-07T07:37:41;-4.40;99.90
19168;DHT22;9716;53.114;18.040;2024-01-07T07:40:11;-4.30;99.90
19168;DHT22;9716;53.114;18.040;2024-01-07T07:42:41;-4.30;99.90
19168;DHT22;9716;53.114;18.040;2024-01-07T07:45:10;-4.30;99.90
19168;DHT22;9716;53.114;18.040;2024-01-07T07:47:39;-4.30;99.90
19168;DHT22;9716;53.114;18.040;2024-01-07T07:50:13;-4.30;99.90
19168;DHT22;9716;53.114;18.040;2024-01-07T07:52:42;-4.40;99.90
19168;DHT22;9716;53.114;18.040;2024-01-07T07:55:11;-4.40;99.90
19168;DHT22;9716;53.114;18.040;2024-01-07T07:57:40;-4.40;99.90
19168;DHT22;9716;53.114;18.040;2024-01-07T08:00:09;-4.30;99.90
19168;DHT22;9716;53.114;18.040;2024-01-07T08:02:40;-4.40;99.90
19168;DHT22;9716;53.114;18.040;2024-01-07T08:05:08;-4.30;99.90
19168;DHT22;9716;53.114;18.040;2024-01-07T08:07:38;-4.30;99.90
19168;DHT22;9716;53.114;18.040;2024-01-07T08:10:07;-4.30;99.90
19168;DHT22;9716;53.114;18.040;2024-01-07T08:12:37;-4.30;99.90
19168;DHT22;9716;53.114;18.040;2024-01-07T08:15:06;-4.40;99.90
19168;DHT22;9716;53.114;18.040;2024-01-07T08:17:35;-4.40;99.90
19168;DHT22;9716;53.114;18.040;2024-01-07T08:20:05;-4.40;99.90
19168;DHT22;9716;53.114;18.040;2024-01-07T08:22:34;-4.30;99.90
19168;DHT22;9716;53.114;18.040;2024-01-07T08:25:04;-4.30;99.90
19168;DHT22;9716;53.114;18.040;2024-01-07T08:27:33;-4.40;99.90
19168;DHT22;9716;53.114;18.040;2024-01-07T08:30:02;-4.40;99.90
19168;DHT22;9716;53.114;18.040;2024-01-07T08:32:31;-4.40;99.90
19168;DHT22;9716;53.114;18.040;2024-01-07T08:34:59;-4.40;99.90
19168;DHT22;9716;53.114;18.040;2024-01-07T08:37:28;-4.40;99.90
19168;DHT22;9716;53.114;18.040;2024-01-07T08:39:56;-4.40;99.90
19168;DHT22;9716;53.114;18.040;2024-01-07T08:42:26;-4.40;99.90
19168;DHT22;9716;53.114;18.040;2024-01-07T08:44:57;-4.50;99.90
19168;DHT22;9716;53.114;18.040;2024-01-07T08:47:28;-4.40;99.90
19168;DHT22;9716;53.114;18.040;2024-01-07T08:50:03;-4.50;99.90
19168;DHT22;9716;53.114;18.040;2024-01-07T08:52:33;-4.40;99.90
19168;DHT22;9716;53.114;18.040;2024-01-07T08:55:02;-4.40;99.90
19168;DHT22;9716;53.114;18.040;2024-01-07T08:57:38;-4.40;99.90
19168;DHT22;9716;53.114;18.040;2024-01-07T09:00:07;-4.50;99.90
19168;DHT22;9716;53.114;18.040;2024-01-07T09:02:36;-4.50;99.90
19168;DHT22;9716;53.114;18.040;2024-01-07T09:05:09;-4.50;99.90
19168;DHT22;9716;53.114;18.040;2024-01-07T09:07:39;-4.60;99.90
19168;DHT22;9716;53.114;18.040;2024-01-07T09:10:08;-4.70;99.90
19168;DHT22;9716;53.114;18.040;2024-01-07T09:12:40;-4.70;99.90
19168;DHT22;9716;53.114;18.040;2024-01-07T09:15:09;-4.80;99.90
19168;DHT22;9716;53.114;18.040;2024-01-07T09:17:38;-4.80;99.90
19168;DHT22;9716;53.114;18.040;2024-01-07T09:20:08;-4.90;99.90
19168;DHT22;9716;53.114;18.040;2024-01-07T09:22:38;-4.90;99.90
19168;DHT22;9716;53.114;18.040;2024-01-07T09:25:08;-5.00;99.90
19168;DHT22;9716;53.114;18.040;2024-01-07T09:27:38;-5.00;99.90
19168;DHT22;9716;53.114;18.040;2024-01-07T09:30:08;-5.00;99.90
19168;DHT22;9716;53.114;18.040;2024-01-07T09:32:38;-5.00;99.90
19168;DHT22;9716;53.114;18.040;2024-01-07T09:35:07;-5.00;99.90
19168;DHT22;9716;53.114;18.040;2024-01-07T09:37:36;-5.00;99.90
19168;DHT22;9716;53.114;18.040;2024-01-07T09:40:05;-5.00;99.90
19168;DHT22;9716;53.114;18.040;2024-01-07T09:42:34;-5.00;99.90
19168;DHT22;9716;53.114;18.040;2024-01-07T09:45:04;-5.00;99.90
19168;DHT22;9716;53.114;18.040;2024-01-07T09:47:35;-5.10;99.90
19168;DHT22;9716;53.114;18.040;2024-01-07T09:50:04;-5.10;99.90
19168;DHT22;9716;53.114;18.040;2024-01-07T09:52:34;-5.10;99.90
19168;DHT22;9716;53.114;18.040;2024-01-07T09:55:04;-5.00;99.90
19168;DHT22;9716;53.114;18.040;2024-01-07T09:57:37;-5.10;99.90
19168;DHT22;9716;53.114;18.040;2024-01-07T10:00:09;-5.00;99.90
19168;DHT22;9716;53.114;18.040;2024-01-07T10:02:40;-5.00;99.90
19168;DHT22;9716;53.114;18.040;2024-01-07T10:05:09;-5.00;99.90
19168;DHT22;9716;53.114;18.040;2024-01-07T10:07:38;-5.00;99.90
19168;DHT22;9716;53.114;18.040;2024-01-07T10:10:14;-4.90;99.90
19168;DHT22;9716;53.114;18.040;2024-01-07T10:12:44;-4.90;99.90
19168;DHT22;9716;53.114;18.040;2024-01-07T10:15:13;-5.00;99.90
19168;DHT22;9716;53.114;18.040;2024-01-07T10:17:45;-4.90;99.90
19168;DHT22;9716;53.114;18.040;2024-01-07T10:20:16;-4.90;99.90
19168;DHT22;9716;53.114;18.040;2024-01-07T10:22:50;-4.90;99.90
19168;DHT22;9716;53.114;18.040;2024-01-07T10:25:19;-5.00;99.90
19168;DHT22;9716;53.114;18.040;2024-01-07T10:27:48;-5.00;99.90
19168;DHT22;9716;53.114;18.040;2024-01-07T10:30:17;-5.00;99.90
19168;DHT22;9716;53.114;18.040;2024-01-07T10:32:47;-5.00;99.90
19168;DHT22;9716;53.114;18.040;2024-01-07T10:35:17;-4.90;99.90
19168;DHT22;9716;53.114;18.040;2024-01-07T10:37:46;-4.90;99.90
19168;DHT22;9716;53.114;18.040;2024-01-07T10:40:15;-4.90;99.90
19168;DHT22;9716;53.114;18.040;2024-01-07T10:42:44;-4.90;99.90
19168;DHT22;9716;53.114;18.040;2024-01-07T10:45:13;-4.90;99.90
19168;DHT22;9716;53.114;18.040;2024-01-07T10:47:49;-5.00;99.90
19168;DHT22;9716;53.114;18.040;2024-01-07T10:50:19;-5.00;99.90
19168;DHT22;9716;53.114;18.040;2024-01-07T10:52:49;-5.10;99.90
19168;DHT22;9716;53.114;18.040;2024-01-07T10:55:18;-5.10;99.90
19168;DHT22;9716;53.114;18.040;2024-01-07T10:57:48;-5.10;99.90
19168;DHT22;9716;53.114;18.040;2024-01-07T11:00:18;-5.10;99.90
19168;DHT22;9716;53.114;18.040;2024-01-07T11:02:57;-5.00;99.90
19168;DHT22;9716;53.114;18.040;2024-01-07T11:05:33;-5.00;99.90
19168;DHT22;9716;53.114;18.040;2024-01-07T11:08:07;-5.00;99.90
19168;DHT22;9716;53.114;18.040;2024-01-07T11:10:43;-4.90;99.90
19168;DHT22;9716;53.114;18.040;2024-01-07T11:13:33;-4.90;99.90
19168;DHT22;9716;53.114;18.040;2024-01-07T11:16:02;-5.00;99.90
19168;DHT22;9716;53.114;18.040;2024-01-07T11:18:33;-5.00;99.90
19168;DHT22;9716;53.114;18.040;2024-01-07T11:21:02;-5.00;99.90
19168;DHT22;9716;53.114;18.040;2024-01-07T11:23:33;-5.00;99.90
19168;DHT22;9716;53.114;18.040;2024-01-07T11:26:05;-5.00;99.90
19168;DHT22;9716;53.114;18.040;2024-01-07T11:28:45;-5.00;99.90
19168;DHT22;9716;53.114;18.040;2024-01-07T11:31:14;-5.00;99.90
19168;DHT22;9716;53.114;18.040;2024-01-07T11:33:46;-5.10;99.90
19168;DHT22;9716;53.114;18.040;2024-01-07T11:36:15;-5.20;99.90
19168;DHT22;9716;53.114;18.040;2024-01-07T11:38:44;-5.20;99.90
19168;DHT22;9716;53.114;18.040;2024-01-07T11:41:18;-5.20;99.90
19168;DHT22;9716;53.114;18.040;2024-01-07T11:43:54;-5.30;99.90
19168;DHT22;9716;53.114;18.040;2024-01-07T11:46:23;-5.30;99.90
19168;DHT22;9716;53.114;18.040;2024-01-07T11:48:55;-5.40;99.90
19168;DHT22;9716;53.114;18.040;2024-01-07T11:51:26;-5.30;99.90
19168;DHT22;9716;53.114;18.040;2024-01-07T11:53:57;-5.30;99.90
19168;DHT22;9716;53.114;18.040;2024-01-07T11:56:26;-5.20;99.90
19168;DHT22;9716;53.114;18.040;2024-01-07T11:58:54;-5.10;99.90
19168;DHT22;9716;53.114;18.040;2024-01-07T12:01:25;-5.10;99.90
19168;DHT22;9716;53.114;18.040;2024-01-07T12:03:56;-5.10;99.90
19168;DHT22;9716;53.114;18.040;2024-01-07T12:06:24;-5.10;99.90
19168;DHT22;9716;53.114;18.040;2024-01-07T12:08:53;-5.10;99.90
19168;DHT22;9716;53.114;18.040;2024-01-07T12:11:22;-5.20;99.90
19168;DHT22;9716;53.114;18.040;2024-01-07T12:13:52;-5.10;99.90
19168;DHT22;9716;53.114;18.040;2024-01-07T12:16:20;-5.20;99.90
19168;DHT22;9716;53.114;18.040;2024-01-07T12:18:49;-5.10;99.90
19168;DHT22;9716;53.114;18.040;2024-01-07T12:21:20;-5.20;99.90
19168;DHT22;9716;53.114;18.040;2024-01-07T12:23:50;-5.20;99.90
19168;DHT22;9716;53.114;18.040;2024-01-07T12:26:19;-5.20;99.90
19168;DHT22;9716;53.114;18.040;2024-01-07T12:28:52;-5.20;99.90
19168;DHT22;9716;53.114;18.040;2024-01-07T12:31:22;-5.20;99.90
19168;DHT22;9716;53.114;18.040;2024-01-07T12:33:51;-5.30;99.90
19168;DHT22;9716;53.114;18.040;2024-01-07T12:36:23;-5.30;99.90
19168;DHT22;9716;53.114;18.040;2024-01-07T12:38:52;-5.40;99.90
19168;DHT22;9716;53.114;18.040;2024-01-07T12:41:22;-5.40;99.90
19168;DHT22;9716;53.114;18.040;2024-01-07T12:43:51;-5.40;99.90
19168;DHT22;9716;53.114;18.040;2024-01-07T12:46:19;-5.40;99.90
19168;DHT22;9716;53.114;18.040;2024-01-07T12:48:48;-5.40;99.90
19168;DHT22;9716;53.114;18.040;2024-01-07T12:51:18;-5.50;99.90
19168;DHT22;9716;53.114;18.040;2024-01-07T12:53:52;-5.50;99.90
19168;DHT22;9716;53.114;18.040;2024-01-07T12:56:23;-5.50;99.90
19168;DHT22;9716;53.114;18.040;2024-01-07T12:58:51;-5.50;99.90
19168;DHT22;9716;53.114;18.040;2024-01-07T13:01:20;-5.40;99.90
19168;DHT22;9716;53.114;18.040;2024-01-07T13:03:49;-5.40;99.90
19168;DHT22;9716;53.114;18.040;2024-01-07T13:06:17;-5.30;99.90
19168;DHT22;9716;53.114;18.040;2024-01-07T13:08:46;-5.20;99.90
19168;DHT22;9716;53.114;18.040;2024-01-07T13:11:16;-5.20;99.90
19168;DHT22;9716;53.114;18.040;2024-01-07T13:13:45;-5.10;99.90
19168;DHT22;9716;53.114;18.040;2024-01-07T13:16:14;-5.20;99.90
19168;DHT22;9716;53.114;18.040;2024-01-07T13:18:42;-5.10;99.90
19168;DHT22;9716;53.114;18.040;2024-01-07T13:21:11;-5.10;99.90
19168;DHT22;9716;53.114;18.040;2024-01-07T13:23:40;-5.10;99.90
19168;DHT22;9716;53.114;18.040;2024-01-07T13:26:11;-5.10;99.90
19168;DHT22;9716;53.114;18.040;2024-01-07T13:28:41;-5.00;99.90
19168;DHT22;9716;53.114;18.040;2024-01-07T13:31:09;-5.00;99.90
19168;DHT22;9716;53.114;18.040;2024-01-07T13:33:39;-5.00;99.90
19168;DHT22;9716;53.114;18.040;2024-01-07T13:36:08;-5.00;99.90
19168;DHT22;9716;53.114;18.040;2024-01-07T13:38:40;-5.00;99.90
19168;DHT22;9716;53.114;18.040;2024-01-07T13:41:10;-5.00;99.90
19168;DHT22;9716;53.114;18.040;2024-01-07T13:43:42;-5.00;99.90
19168;DHT22;9716;53.114;18.040;2024-01-07T13:46:11;-5.10;99.90
19168;DHT22;9716;53.114;18.040;2024-01-07T13:48:40;-5.10;99.90
19168;DHT22;9716;53.114;18.040;2024-01-07T13:51:09;-5.10;99.90
19168;DHT22;9716;53.114;18.040;2024-01-07T13:53:38;-5.20;99.90
19168;DHT22;9716;53.114;18.040;2024-01-07T13:56:07;-5.20;99.90
19168;DHT22;9716;53.114;18.040;2024-01-07T13:58:36;-5.10;99.90
19168;DHT22;9716;53.114;18.040;2024-01-07T14:01:06;-5.20;99.90
19168;DHT22;9716;53.114;18.040;2024-01-07T14:03:35;-5.20;99.90
19168;DHT22;9716;53.114;18.040;2024-01-07T14:06:04;-5.10;99.90
19168;DHT22;9716;53.114;18.040;2024-01-07T14:08:33;-5.20;99.90
19168;DHT22;9716;53.114;18.040;2024-01-07T14:11:01;-5.20;99.90
19168;DHT22;9716;53.114;18.040;2024-01-07T14:13:31;-5.20;99.90
19168;DHT22;9716;53.114;18.040;2024-01-07T14:15:59;-5.20;99.90
19168;DHT22;9716;53.114;18.040;2024-01-07T14:18:30;-5.20;99.90
19168;DHT22;9716;53.114;18.040;2024-01-07T14:20:59;-5.30;99.90
19168;DHT22;9716;53.114;18.040;2024-01-07T14:23:27;-5.30;99.90
19168;DHT22;9716;53.114;18.040;2024-01-07T14:26:00;-5.30;99.90
19168;DHT22;9716;53.114;18.040;2024-01-07T14:28:29;-5.30;99.90
19168;DHT22;9716;53.114;18.040;2024-01-07T14:30:57;-5.40;99.90
19168;DHT22;9716;53.114;18.040;2024-01-07T14:33:27;-5.30;99.90
19168;DHT22;9716;53.114;18.040;2024-01-07T14:35:57;-5.30;99.90
19168;DHT22;9716;53.114;18.040;2024-01-07T14:38:26;-5.30;99.90
19168;DHT22;9716;53.114;18.040;2024-01-07T14:40:54;-5.30;99.90
19168;DHT22;9716;53.114;18.040;2024-01-07T14:43:25;-5.30;99.90
19168;DHT22;9716;53.114;18.040;2024-01-07T14:45:53;-5.30;99.90
19168;DHT22;9716;53.114;18.040;2024-01-07T14:48:22;-5.30;99.90
19168;DHT22;9716;53.114;18.040;2024-01-07T14:50:50;-5.30;99.90
19168;DHT22;9716;53.114;18.040;2024-01-07T14:53:21;-5.30;99.90
19168;DHT22;9716;53.114;18.040;2024-01-07T14:55:49;-5.30;99.90
19168;DHT22;9716;53.114;18.040;2024-01-07T14:58:17;-5.20;99.90
19168;DHT22;9716;53.114;18.040;2024-01-07T15:00:48;-5.20;99.90
19168;DHT22;9716;53.114;18.040;2024-01-07T15:03:18;-5.20;99.90
19168;DHT22;9716;53.114;18.040;2024-01-07T15:05:47;-5.20;99.90
19168;DHT22;9716;53.114;18.040;2024-01-07T15:08:15;-5.20;99.90
19168;DHT22;9716;53.114;18.040;2024-01-07T15:10:45;-5.30;99.90
19168;DHT22;9716;53.114;18.040;2024-01-07T15:13:14;-5.30;99.90
19168;DHT22;9716;53.114;18.040;2024-01-07T15:15:47;-5.30;99.90
19168;DHT22;9716;53.114;18.040;2024-01-07T15:18:16;-5.30;99.90
19168;DHT22;9716;53.114;18.040;2024-01-07T15:20:45;-5.40;99.90
19168;DHT22;9716;53.114;18.040;2024-01-07T15:23:14;-5.40;99.90
19168;DHT22;9716;53.114;18.040;2024-01-07T15:25:43;-5.40;99.90
19168;DHT22;9716;53.114;18.040;2024-01-07T15:28:13;-5.40;99.90
19168;DHT22;9716;53.114;18.040;2024-01-07T15:30:43;-5.50;99.90
19168;DHT22;9716;53.114;18.040;2024-01-07T15:33:11;-5.50;99.90
19168;DHT22;9716;53.114;18.040;2024-01-07T15:35:40;-5.50;99.90
19168;DHT22;9716;53.114;18.040;2024-01-07T15:38:08;-5.40;99.90
19168;DHT22;9716;53.114;18.040;2024-01-07T15:40:37;-5.40;99.90
19168;DHT22;9716;53.114;18.040;2024-01-07T15:43:06;-5.40;99.90